createdAt,value
2017-12-17T00:01:34.114Z,0.59
2017-12-17T00:03:59.880Z,0.54
2017-12-17T00:06:25.624Z,0.65
2017-12-17T00:08:51.427Z,0.56
2017-12-17T00:11:17.167Z,0.58
2017-12-17T00:13:42.932Z,0.60
2017-12-17T00:16:08.733Z,0.62
2017-12-17T00:18:34.503Z,0.55
2017-12-17T00:21:00.252Z,0.62
2017-12-17T00:23:26.016Z,0.64
2017-12-17T00:25:51.770Z,0.62
2017-12-17T00:28:17.515Z,0.52
2017-12-17T00:30:43.292Z,0.57
2017-12-17T00:33:09.034Z,0.57
2017-12-17T00:35:34.855Z,0.66
2017-12-17T00:38:03.990Z,0.56
2017-12-17T00:40:29.748Z,0.56
2017-12-17T00:42:55.500Z,0.50
2017-12-17T00:45:21.273Z,0.47
2017-12-17T00:47:47.021Z,0.61
2017-12-17T00:50:12.784Z,0.65
2017-12-17T00:52:38.524Z,0.45
2017-12-17T00:55:05.131Z,0.40
2017-12-17T00:57:30.943Z,0.38
2017-12-17T00:59:56.939Z,0.25
2017-12-17T01:02:22.685Z,0.46
2017-12-17T01:04:48.432Z,0.20
2017-12-17T01:07:14.207Z,0.24
2017-12-17T01:09:39.972Z,0.43
2017-12-17T01:12:05.736Z,0.51
2017-12-17T01:14:31.494Z,0.44
2017-12-17T01:16:57.271Z,0.37
2017-12-17T01:19:23.075Z,0.28
2017-12-17T01:21:48.828Z,0.27
2017-12-17T01:24:14.564Z,0.28
2017-12-17T01:26:40.372Z,0.23
2017-12-17T01:29:06.127Z,0.24
2017-12-17T01:31:32.447Z,0.16
2017-12-17T01:34:05.103Z,0.12
2017-12-17T01:36:30.871Z,0.07
2017-12-17T01:38:56.612Z,0.18
2017-12-17T01:41:23.150Z,0.06
2017-12-17T01:43:48.899Z,0.07
2017-12-17T01:46:14.667Z,0.05
2017-12-17T01:48:40.436Z,0.02
2017-12-17T01:51:06.183Z,0.00
2017-12-17T01:53:31.955Z,0.08
2017-12-17T01:55:58.025Z,0.08
2017-12-17T01:58:23.779Z,0.10
2017-12-17T02:00:49.526Z,0.21
2017-12-17T02:03:15.307Z,0.24
2017-12-17T02:05:41.057Z,0.20
2017-12-17T02:08:06.822Z,0.26
2017-12-17T02:10:32.571Z,0.21
2017-12-17T02:12:58.337Z,0.27
2017-12-17T02:15:24.087Z,0.44
2017-12-17T02:17:49.843Z,0.50
2017-12-17T02:20:15.586Z,0.51
2017-12-17T02:22:41.340Z,0.57
2017-12-17T02:25:07.130Z,0.53
2017-12-17T02:27:32.886Z,0.56
2017-12-17T02:29:58.667Z,0.51
2017-12-17T02:32:24.423Z,0.49
2017-12-17T02:34:50.220Z,0.54
2017-12-17T02:37:15.971Z,0.47
2017-12-17T02:39:41.740Z,0.51
2017-12-17T02:42:07.517Z,0.49
2017-12-17T02:44:33.606Z,0.41
2017-12-17T02:46:59.407Z,0.37
2017-12-17T02:49:25.180Z,0.31
2017-12-17T02:51:50.932Z,0.26
2017-12-17T02:54:16.700Z,0.27
2017-12-17T02:56:42.464Z,0.30
2017-12-17T02:59:08.232Z,0.22
2017-12-17T03:01:33.995Z,0.30
2017-12-17T03:03:59.827Z,0.22
2017-12-17T03:06:25.587Z,0.30
2017-12-17T03:08:51.343Z,0.28
2017-12-17T03:11:17.862Z,0.22
2017-12-17T03:13:43.616Z,0.26
2017-12-17T03:16:09.385Z,0.10
2017-12-17T03:18:35.186Z,0.17
2017-12-17T03:21:00.971Z,0.13
2017-12-17T03:23:27.300Z,0.17
2017-12-17T03:25:53.072Z,0.18
2017-12-17T03:28:18.821Z,0.19
2017-12-17T03:30:44.609Z,0.25
2017-12-17T03:33:10.366Z,0.30
2017-12-17T03:35:36.760Z,0.23
2017-12-17T03:38:02.535Z,0.18
2017-12-17T03:40:28.279Z,0.29
2017-12-17T03:42:54.084Z,0.33
2017-12-17T03:45:19.846Z,0.29
2017-12-17T03:47:45.631Z,0.35
2017-12-17T03:50:11.384Z,0.41
2017-12-17T03:52:37.174Z,0.49
2017-12-17T03:55:02.914Z,0.53
2017-12-17T03:57:28.689Z,0.52
2017-12-17T03:59:54.439Z,0.60
2017-12-17T04:02:20.195Z,0.60
2017-12-17T04:04:45.963Z,0.71
2017-12-17T04:07:11.736Z,0.80
2017-12-17T04:09:37.499Z,0.86
2017-12-17T04:12:03.255Z,0.83
2017-12-17T04:14:29.010Z,0.83
2017-12-17T04:16:54.763Z,0.85
2017-12-17T04:19:20.511Z,0.73
2017-12-17T04:21:46.303Z,0.71
2017-12-17T04:24:12.036Z,0.77
2017-12-17T04:26:37.803Z,0.82
2017-12-17T04:29:03.563Z,0.83
2017-12-17T04:31:29.307Z,0.86
2017-12-17T04:33:55.060Z,0.76
2017-12-17T04:36:20.807Z,0.71
2017-12-17T04:38:46.547Z,0.72
2017-12-17T04:41:12.288Z,0.71
2017-12-17T04:43:38.057Z,0.71
2017-12-17T04:46:03.807Z,0.75
2017-12-17T04:48:29.560Z,0.80
2017-12-17T04:50:55.298Z,0.82
2017-12-17T04:53:21.051Z,0.85
2017-12-17T04:55:46.794Z,0.83
2017-12-17T04:58:12.564Z,0.83
2017-12-17T05:00:38.319Z,0.77
2017-12-17T05:03:04.080Z,0.78
2017-12-17T05:05:29.814Z,0.73
2017-12-17T05:07:55.555Z,0.80
2017-12-17T05:10:21.327Z,0.80
2017-12-17T05:12:47.073Z,0.87
2017-12-17T05:15:12.835Z,0.95
2017-12-17T05:17:38.580Z,0.85
2017-12-17T05:20:04.321Z,0.89
2017-12-17T05:22:30.071Z,0.97
2017-12-17T05:24:55.816Z,0.91
2017-12-17T05:27:21.559Z,0.83
2017-12-17T05:29:47.327Z,0.91
2017-12-17T05:32:13.067Z,0.98
2017-12-17T05:34:38.827Z,0.93
2017-12-17T05:37:04.563Z,0.97
2017-12-17T05:39:30.384Z,0.94
2017-12-17T05:41:56.153Z,1.02
2017-12-17T05:44:21.879Z,1.06
2017-12-17T05:46:47.626Z,1.06
2017-12-17T05:49:13.360Z,1.08
2017-12-17T05:51:39.119Z,1.10
2017-12-17T05:54:04.870Z,1.04
2017-12-17T05:56:30.632Z,1.00
2017-12-17T05:58:56.389Z,1.07
2017-12-17T06:01:22.154Z,1.04
2017-12-17T06:03:47.903Z,1.00
2017-12-17T06:06:13.655Z,0.99
2017-12-17T06:08:39.399Z,1.01
2017-12-17T06:11:05.143Z,1.02
2017-12-17T06:13:30.908Z,1.11
2017-12-17T06:15:56.688Z,1.04
2017-12-17T06:18:22.428Z,1.08
2017-12-17T06:20:48.162Z,1.14
2017-12-17T06:23:13.907Z,1.09
2017-12-17T06:25:39.667Z,1.10
2017-12-17T06:28:05.431Z,1.19
2017-12-17T06:30:31.192Z,1.03
2017-12-17T06:32:56.951Z,1.05
2017-12-17T06:35:22.704Z,1.08
2017-12-17T06:37:48.460Z,1.01
2017-12-17T06:40:14.213Z,1.04
2017-12-17T06:42:39.964Z,1.13
2017-12-17T06:45:05.700Z,1.15
2017-12-17T06:47:31.452Z,1.10
2017-12-17T06:49:57.191Z,1.09
2017-12-17T06:52:22.932Z,1.05
2017-12-17T06:54:48.689Z,0.99
2017-12-17T06:57:14.475Z,1.02
2017-12-17T06:59:40.216Z,0.96
2017-12-17T07:02:05.971Z,0.93
2017-12-17T07:04:31.722Z,0.88
2017-12-17T07:06:57.471Z,0.86
2017-12-17T07:09:23.231Z,0.86
2017-12-17T07:11:48.969Z,0.79
2017-12-17T07:14:14.716Z,0.74
2017-12-17T07:16:40.466Z,0.72
2017-12-17T07:19:06.218Z,0.69
2017-12-17T07:21:31.987Z,0.62
2017-12-17T07:23:57.731Z,0.62
2017-12-17T07:26:23.495Z,0.64
2017-12-17T07:28:49.252Z,0.63
2017-12-17T07:31:14.999Z,0.67
2017-12-17T07:33:40.743Z,0.69
2017-12-17T07:36:06.534Z,0.67
2017-12-17T07:38:32.296Z,0.62
2017-12-17T07:40:58.058Z,0.52
2017-12-17T07:43:23.817Z,0.49
2017-12-17T07:45:49.579Z,0.41
2017-12-17T07:48:15.319Z,0.45
2017-12-17T07:50:41.068Z,0.36
2017-12-17T07:53:06.839Z,0.35
2017-12-17T07:55:32.586Z,0.34
2017-12-17T07:57:58.368Z,0.35
2017-12-17T08:00:24.167Z,0.39
2017-12-17T08:02:49.932Z,0.28
2017-12-17T08:05:15.675Z,0.34
2017-12-17T08:07:41.438Z,0.29
2017-12-17T08:10:07.179Z,0.24
2017-12-17T08:12:32.936Z,0.22
2017-12-17T08:14:58.686Z,0.16
2017-12-17T08:17:24.462Z,0.29
2017-12-17T08:19:50.203Z,0.29
2017-12-17T08:22:15.964Z,0.31
2017-12-17T08:24:41.743Z,0.31
2017-12-17T08:27:07.499Z,0.35
2017-12-17T08:29:33.251Z,0.36
2017-12-17T08:31:59.024Z,0.33
2017-12-17T08:34:24.774Z,0.34
2017-12-17T08:36:50.519Z,0.28
2017-12-17T08:39:16.287Z,0.32
2017-12-17T08:41:42.032Z,0.30
2017-12-17T08:44:07.795Z,0.24
2017-12-17T08:46:33.542Z,0.26
2017-12-17T08:48:59.308Z,0.28
2017-12-17T08:51:25.050Z,0.28
2017-12-17T08:53:50.799Z,0.35
2017-12-17T08:56:16.546Z,0.31
2017-12-17T08:58:42.311Z,0.34
2017-12-17T09:01:08.051Z,0.43
2017-12-17T09:03:33.823Z,0.44
2017-12-17T09:05:59.570Z,0.49
2017-12-17T09:08:25.336Z,0.51
2017-12-17T09:10:51.087Z,0.56
2017-12-17T09:13:16.853Z,0.60
2017-12-17T09:15:42.611Z,0.71
2017-12-17T09:18:08.372Z,0.70
2017-12-17T09:20:34.127Z,0.73
2017-12-17T09:22:59.887Z,0.68
2017-12-17T09:25:25.658Z,0.78
2017-12-17T09:27:51.402Z,0.83
2017-12-17T09:30:17.171Z,0.81
2017-12-17T09:32:42.924Z,0.81
2017-12-17T09:35:08.690Z,0.83
2017-12-17T09:37:34.432Z,0.84
2017-12-17T09:40:00.176Z,0.92
2017-12-17T09:42:25.921Z,0.97
2017-12-17T09:44:51.688Z,0.94
2017-12-17T09:47:17.439Z,1.02
2017-12-17T09:49:43.269Z,1.17
2017-12-17T09:52:09.024Z,1.21
2017-12-17T09:54:34.782Z,1.15
2017-12-17T09:57:00.530Z,1.15
2017-12-17T09:59:26.293Z,1.26
2017-12-17T10:01:52.046Z,1.23
2017-12-17T10:04:17.795Z,1.28
2017-12-17T10:06:43.562Z,1.22
2017-12-17T10:09:09.310Z,1.30
2017-12-17T10:11:35.082Z,1.30
2017-12-17T10:14:00.830Z,1.36
2017-12-17T10:16:26.576Z,1.32
2017-12-17T10:18:52.330Z,1.44
2017-12-17T10:21:18.096Z,1.48
2017-12-17T10:23:43.848Z,1.51
2017-12-17T10:26:09.610Z,1.62
2017-12-17T10:28:35.363Z,1.62
2017-12-17T10:31:01.117Z,1.60
2017-12-17T10:33:26.880Z,1.61
2017-12-17T10:35:52.635Z,1.55
2017-12-17T10:38:18.407Z,1.64
2017-12-17T10:40:44.160Z,1.74
2017-12-17T10:43:10.549Z,1.80
2017-12-17T10:45:36.653Z,1.96
2017-12-17T10:48:02.424Z,1.89
2017-12-17T10:50:28.174Z,1.89
2017-12-17T10:52:53.936Z,1.83
2017-12-17T10:55:19.710Z,1.86
2017-12-17T10:57:45.483Z,1.85
2017-12-17T11:00:11.244Z,1.88
2017-12-17T11:02:37.008Z,1.88
2017-12-17T11:05:02.763Z,2.04
2017-12-17T11:07:28.519Z,2.07
2017-12-17T11:09:54.635Z,2.14
2017-12-17T11:12:20.399Z,2.15
2017-12-17T11:14:46.159Z,2.10
2017-12-17T11:17:11.932Z,2.19
2017-12-17T11:19:37.695Z,2.15
2017-12-17T11:22:03.447Z,2.40
2017-12-17T11:24:29.219Z,2.43
2017-12-17T11:26:54.959Z,2.43
2017-12-17T11:29:20.729Z,2.32
2017-12-17T11:31:46.480Z,2.47
2017-12-17T11:34:12.262Z,2.43
2017-12-17T11:36:38.031Z,2.51
2017-12-17T11:39:03.791Z,2.36
2017-12-17T11:41:29.556Z,2.34
2017-12-17T11:43:55.303Z,2.25
2017-12-17T11:46:21.060Z,2.32
2017-12-17T11:48:46.811Z,2.36
2017-12-17T11:51:12.581Z,2.30
2017-12-17T11:53:38.328Z,2.37
2017-12-17T11:56:04.083Z,2.43
2017-12-17T11:58:29.846Z,2.49
2017-12-17T12:00:55.670Z,2.49
2017-12-17T12:03:21.410Z,2.57
2017-12-17T12:05:47.155Z,2.66
2017-12-17T12:08:12.924Z,2.70
2017-12-17T12:10:39.107Z,2.82
2017-12-17T12:13:04.878Z,2.98
2017-12-17T12:15:30.615Z,3.03
2017-12-17T12:17:56.374Z,2.97
2017-12-17T12:20:22.123Z,2.84
2017-12-17T12:22:47.900Z,2.68
2017-12-17T12:25:13.663Z,2.88
2017-12-17T12:27:39.419Z,2.79
2017-12-17T12:30:05.155Z,2.85
2017-12-17T12:32:30.907Z,2.91
2017-12-17T12:34:56.659Z,2.91
2017-12-17T12:37:22.418Z,2.94
2017-12-17T12:39:48.172Z,3.01
2017-12-17T12:42:13.931Z,2.81
2017-12-17T12:44:39.670Z,2.97
2017-12-17T12:47:05.423Z,2.66
2017-12-17T12:49:31.175Z,2.58
2017-12-17T12:51:56.925Z,2.71
2017-12-17T12:54:22.705Z,2.71
2017-12-17T12:56:48.438Z,2.68
2017-12-17T12:59:14.187Z,2.67
2017-12-17T13:01:39.930Z,2.63
2017-12-17T13:04:05.708Z,2.70
2017-12-17T13:06:31.471Z,2.70
2017-12-17T13:08:57.234Z,2.63
2017-12-17T13:11:23.007Z,2.77
2017-12-17T13:13:48.774Z,2.75
2017-12-17T13:16:14.529Z,2.86
2017-12-17T13:18:40.302Z,3.06
2017-12-17T13:21:06.055Z,2.80
2017-12-17T13:23:31.789Z,3.02
2017-12-17T13:25:57.544Z,3.00
2017-12-17T13:28:23.287Z,3.18
2017-12-17T13:30:49.051Z,3.21
2017-12-17T13:33:14.795Z,3.13
2017-12-17T13:35:40.543Z,3.21
2017-12-17T13:38:06.291Z,3.20
2017-12-17T13:40:32.051Z,3.03
2017-12-17T13:42:57.793Z,3.26
2017-12-17T13:45:23.552Z,3.22
2017-12-17T13:47:49.295Z,3.02
2017-12-17T13:50:15.037Z,2.99
2017-12-17T13:52:40.780Z,3.09
2017-12-17T13:55:06.547Z,3.10
2017-12-17T13:57:32.301Z,3.01
2017-12-17T13:59:58.071Z,2.96
2017-12-17T14:02:23.823Z,2.81
2017-12-17T14:04:49.559Z,2.94
2017-12-17T14:07:15.314Z,2.94
2017-12-17T14:09:41.068Z,2.96
2017-12-17T14:12:06.823Z,2.84
2017-12-17T14:14:32.563Z,2.76
2017-12-17T14:16:58.343Z,2.65
2017-12-17T14:19:24.087Z,2.64
2017-12-17T14:21:49.851Z,2.62
2017-12-17T14:24:15.591Z,2.63
2017-12-17T14:26:41.339Z,2.57
2017-12-17T14:29:07.078Z,2.48
2017-12-17T14:31:32.839Z,2.45
2017-12-17T14:33:58.589Z,2.34
2017-12-17T14:36:24.372Z,2.35
2017-12-17T14:39:02.638Z,2.49
2017-12-17T14:41:28.403Z,2.36
2017-12-17T14:43:54.151Z,2.44
2017-12-17T14:46:19.902Z,2.32
2017-12-17T14:48:45.655Z,2.10
2017-12-17T14:51:11.417Z,2.04
2017-12-17T14:53:37.202Z,2.04
2017-12-17T14:56:02.952Z,2.00
2017-12-17T14:58:28.737Z,1.84
2017-12-17T15:00:54.516Z,1.78
2017-12-17T15:03:20.282Z,1.89
2017-12-17T15:05:46.043Z,1.86
2017-12-17T15:08:11.806Z,1.80
2017-12-17T15:10:37.568Z,1.68
2017-12-17T15:13:03.359Z,1.67
2017-12-17T15:15:29.087Z,1.59
2017-12-17T15:17:54.848Z,1.60
2017-12-17T15:20:20.616Z,1.57
2017-12-17T15:22:46.395Z,1.58
2017-12-17T15:25:12.163Z,1.53
2017-12-17T15:27:37.937Z,1.47
2017-12-17T15:30:03.696Z,1.51
2017-12-17T15:32:29.455Z,1.46
2017-12-17T15:34:55.232Z,1.44
2017-12-17T15:37:20.976Z,1.48
2017-12-17T15:39:46.730Z,1.46
2017-12-17T15:42:12.486Z,1.36
2017-12-17T15:44:38.245Z,1.34
2017-12-17T15:47:03.999Z,1.34
2017-12-17T15:49:29.771Z,1.31
2017-12-17T15:51:55.515Z,1.37
2017-12-17T15:54:21.307Z,1.13
2017-12-17T15:56:47.060Z,1.17
2017-12-17T15:59:12.813Z,1.10
2017-12-17T16:01:38.592Z,1.13
2017-12-17T16:04:04.334Z,1.16
2017-12-17T16:06:30.116Z,0.93
2017-12-17T16:08:55.871Z,1.09
2017-12-17T16:11:21.635Z,1.19
2017-12-17T16:13:47.402Z,1.05
2017-12-17T16:16:13.175Z,0.88
2017-12-17T16:18:38.931Z,0.89
2017-12-17T16:21:04.696Z,0.97
2017-12-17T16:23:30.443Z,0.93
2017-12-17T16:25:56.208Z,0.87
2017-12-17T16:28:21.961Z,1.03
2017-12-17T16:30:47.743Z,1.06
2017-12-17T16:33:13.480Z,0.95
2017-12-17T16:35:39.236Z,4.82
2017-12-17T16:38:04.984Z,1.63
2017-12-17T16:40:30.722Z,1.11
2017-12-17T16:42:56.500Z,0.98
2017-12-17T16:45:22.256Z,0.86
2017-12-17T16:47:48.030Z,0.82
2017-12-17T16:50:13.771Z,0.77
2017-12-17T16:52:39.517Z,0.81
2017-12-17T16:55:05.280Z,0.75
2017-12-17T16:57:31.039Z,0.65
2017-12-17T16:59:56.791Z,0.79
2017-12-17T17:02:22.551Z,0.77
2017-12-17T17:04:48.454Z,0.68
2017-12-17T17:07:14.203Z,0.69
2017-12-17T17:09:39.954Z,0.67
2017-12-17T17:12:05.727Z,0.76
2017-12-17T17:14:31.467Z,0.65
2017-12-17T17:16:57.271Z,0.66
2017-12-17T17:19:23.087Z,0.71
2017-12-17T17:21:48.835Z,0.71
2017-12-17T17:24:14.617Z,0.77
2017-12-17T17:26:40.367Z,0.71
2017-12-17T17:29:06.131Z,0.69
2017-12-17T17:31:31.875Z,0.63
2017-12-17T17:33:57.679Z,0.57
2017-12-17T17:36:23.424Z,0.62
2017-12-17T17:38:49.195Z,0.73
2017-12-17T17:41:14.934Z,0.73
2017-12-17T17:43:40.732Z,0.69
2017-12-17T17:46:06.491Z,0.73
2017-12-17T17:48:32.251Z,0.69
2017-12-17T17:50:58.014Z,0.65
2017-12-17T17:53:23.763Z,0.66
2017-12-17T17:55:49.519Z,0.56
2017-12-17T17:58:15.290Z,0.49
2017-12-17T18:00:41.036Z,0.45
2017-12-17T18:03:06.796Z,0.42
2017-12-17T18:05:32.563Z,0.33
2017-12-17T18:07:58.315Z,0.38
2017-12-17T18:10:24.069Z,0.33
2017-12-17T18:12:49.828Z,0.22
2017-12-17T18:15:15.583Z,0.16
2017-12-17T18:17:41.328Z,0.22
2017-12-17T18:20:07.095Z,0.22
2017-12-17T18:22:32.839Z,0.20
2017-12-17T18:24:58.631Z,0.13
2017-12-17T18:27:24.377Z,0.17
2017-12-17T18:29:50.127Z,0.15
2017-12-17T18:32:15.879Z,0.11
2017-12-17T18:34:41.638Z,0.15
2017-12-17T18:37:07.406Z,0.04
2017-12-17T18:39:33.475Z,0.11
2017-12-17T18:41:59.236Z,0.11
2017-12-17T18:44:24.987Z,0.10
2017-12-17T18:46:50.738Z,0.00
2017-12-17T18:49:16.536Z,0.05
2017-12-17T18:51:42.330Z,0.05
2017-12-17T18:54:08.079Z,0.05
2017-12-17T18:56:33.843Z,0.02
2017-12-17T18:58:59.612Z,0.06
2017-12-17T19:01:25.376Z,-0.02
2017-12-17T19:03:51.175Z,-0.13
2017-12-17T19:06:18.928Z,0.02
2017-12-17T19:08:46.390Z,0.05
2017-12-17T19:11:13.472Z,0.03
2017-12-17T19:13:39.798Z,0.06
2017-12-17T19:16:06.623Z,0.03
2017-12-17T19:18:34.184Z,0.01
2017-12-17T19:21:01.377Z,-0.10
2017-12-17T19:23:28.722Z,-0.05
2017-12-17T19:25:56.279Z,-0.01
2017-12-17T19:28:24.200Z,0.03
2017-12-17T19:30:51.664Z,0.05
2017-12-17T19:33:19.366Z,0.05
2017-12-17T19:35:45.850Z,0.00
2017-12-17T19:38:11.622Z,0.04
2017-12-17T19:40:37.375Z,0.12
2017-12-17T19:43:04.344Z,0.20
2017-12-17T19:45:30.102Z,0.27
2017-12-17T19:47:55.897Z,0.22
2017-12-17T19:50:21.674Z,0.24
2017-12-17T19:52:47.427Z,0.16
2017-12-17T19:55:13.201Z,0.23
2017-12-17T19:57:38.955Z,0.14
2017-12-17T20:00:04.724Z,0.19
2017-12-17T20:02:30.471Z,0.22
2017-12-17T20:04:56.226Z,0.16
2017-12-17T20:07:21.978Z,0.12
2017-12-17T20:09:47.738Z,0.17
2017-12-17T20:12:13.494Z,0.06
2017-12-17T20:14:39.271Z,0.09
2017-12-17T20:17:05.024Z,0.11
2017-12-17T20:19:30.795Z,0.18
2017-12-17T20:21:56.580Z,0.15
2017-12-17T20:24:22.337Z,0.24
2017-12-17T20:26:48.122Z,0.23
2017-12-17T20:29:13.880Z,0.26
2017-12-17T20:31:39.644Z,0.23
2017-12-17T20:34:05.412Z,0.17
2017-12-17T20:36:31.191Z,0.27
2017-12-17T20:38:56.932Z,0.26
2017-12-17T20:41:22.690Z,0.33
2017-12-17T20:43:48.435Z,0.39
2017-12-17T20:46:14.179Z,0.47
2017-12-17T20:48:39.927Z,0.43
2017-12-17T20:51:05.683Z,0.44
2017-12-17T20:53:31.439Z,0.49
2017-12-17T20:55:57.179Z,0.48
2017-12-17T20:58:22.928Z,0.54
2017-12-17T21:00:48.670Z,0.48
2017-12-17T21:03:14.427Z,0.49
2017-12-17T21:05:40.166Z,0.52
2017-12-17T21:08:05.923Z,0.57
2017-12-17T21:10:31.667Z,0.61
2017-12-17T21:12:57.434Z,0.59
2017-12-17T21:15:23.191Z,0.54
2017-12-17T21:17:48.958Z,0.56
2017-12-17T21:20:14.691Z,0.60
2017-12-17T21:22:40.430Z,0.70
2017-12-17T21:25:06.187Z,0.74
2017-12-17T21:27:31.945Z,0.78
2017-12-17T21:29:57.696Z,0.75
2017-12-17T21:32:23.423Z,0.69
2017-12-17T21:34:49.181Z,0.81
2017-12-17T21:37:14.945Z,0.70
2017-12-17T21:39:40.695Z,0.72
2017-12-17T21:42:06.455Z,0.79
2017-12-17T21:44:32.210Z,0.76
2017-12-17T21:46:58.479Z,0.86
2017-12-17T21:49:24.247Z,0.79
2017-12-17T21:51:49.987Z,0.80
2017-12-17T21:54:15.748Z,0.80
2017-12-17T21:56:41.710Z,0.84
2017-12-17T21:59:07.523Z,0.90
2017-12-17T22:01:33.271Z,0.86
2017-12-17T22:03:59.027Z,0.89
2017-12-17T22:06:25.516Z,0.93
2017-12-17T22:08:51.263Z,0.95
2017-12-17T22:11:17.007Z,0.94
2017-12-17T22:13:42.769Z,0.95
2017-12-17T22:16:08.520Z,0.98
2017-12-17T22:18:34.262Z,0.93
2017-12-17T22:21:00.006Z,1.01
2017-12-17T22:23:25.771Z,0.97
2017-12-17T22:25:51.531Z,0.94
2017-12-17T22:28:17.279Z,1.04
2017-12-17T22:30:43.023Z,1.06
2017-12-17T22:33:08.782Z,1.07
2017-12-17T22:35:34.562Z,1.05
2017-12-17T22:38:00.291Z,1.03
2017-12-17T22:40:26.047Z,1.08
2017-12-17T22:42:51.791Z,1.01
2017-12-17T22:45:17.552Z,0.98
2017-12-17T22:47:43.302Z,0.99
2017-12-17T22:50:09.046Z,1.05
2017-12-17T22:52:34.830Z,1.06
2017-12-17T22:55:00.588Z,1.04
2017-12-17T22:57:26.708Z,1.18
2017-12-17T22:59:52.446Z,1.18
2017-12-17T23:02:18.703Z,1.18
2017-12-17T23:04:44.688Z,1.16
2017-12-17T23:07:10.483Z,1.20
2017-12-17T23:09:36.283Z,1.25
2017-12-17T23:12:02.075Z,1.35
2017-12-17T23:14:27.838Z,1.32
2017-12-17T23:16:53.793Z,1.37
2017-12-17T23:19:19.551Z,1.33
2017-12-17T23:21:45.380Z,1.42
2017-12-17T23:24:11.120Z,1.33
2017-12-17T23:26:36.891Z,1.40
2017-12-17T23:29:02.635Z,1.39
2017-12-17T23:31:28.920Z,1.44
2017-12-17T23:33:54.737Z,1.44
2017-12-17T23:36:20.486Z,1.47
2017-12-17T23:38:47.486Z,1.41
2017-12-17T23:41:13.407Z,1.46
2017-12-17T23:43:39.562Z,1.46
2017-12-17T23:46:05.376Z,1.39
2017-12-17T23:48:31.136Z,1.45
2017-12-17T23:50:56.899Z,1.50
2017-12-17T23:53:22.643Z,1.39
2017-12-17T23:55:48.387Z,1.54
2017-12-17T23:58:14.140Z,1.50
